createdAt,value
2019-01-22T00:02:06.123Z,23.45
2019-01-22T00:04:36.115Z,22.73
2019-01-22T00:07:05.970Z,29.05
2019-01-22T00:09:36.879Z,24.00
2019-01-22T00:12:06.975Z,19.00
2019-01-22T00:14:37.735Z,24.65
2019-01-22T00:17:07.701Z,18.50
2019-01-22T00:19:38.742Z,21.75
2019-01-22T00:22:08.571Z,17.67
2019-01-22T00:24:38.271Z,20.23
2019-01-22T00:27:08.966Z,14.58
2019-01-22T00:29:39.872Z,17.57
2019-01-22T00:32:10.892Z,22.58
2019-01-22T00:34:40.767Z,20.65
2019-01-22T00:37:10.475Z,18.20
2019-01-22T00:39:42.099Z,17.90
2019-01-22T00:42:12.064Z,19.57
2019-01-22T00:44:42.169Z,17.95
2019-01-22T00:47:12.015Z,24.60
2019-01-22T00:49:42.672Z,18.35
2019-01-22T00:52:13.250Z,13.18
2019-01-22T00:54:42.943Z,19.57
2019-01-22T00:57:12.875Z,16.40
2019-01-22T00:59:42.590Z,19.07
2019-01-22T01:02:13.561Z,17.82
2019-01-22T01:04:44.561Z,27.20
2019-01-22T01:07:14.410Z,21.52
2019-01-22T01:09:45.059Z,16.10
2019-01-22T01:12:14.787Z,18.45
2019-01-22T01:14:44.475Z,26.42
2019-01-22T01:17:14.415Z,25.72
2019-01-22T01:19:50.284Z,23.80
2019-01-22T01:22:21.020Z,25.48
2019-01-22T01:24:52.139Z,20.65
2019-01-22T01:27:22.119Z,14.85
2019-01-22T01:29:51.948Z,27.73
2019-01-22T01:32:21.667Z,21.07
2019-01-22T01:34:51.363Z,21.17
2019-01-22T01:37:22.271Z,16.25
2019-01-22T01:39:52.115Z,23.57
2019-01-22T01:42:21.819Z,26.50
2019-01-22T01:44:51.519Z,22.07
2019-01-22T01:47:22.661Z,30.50
2019-01-22T01:49:58.755Z,25.68
2019-01-22T01:52:28.736Z,35.15
2019-01-22T01:54:58.574Z,30.20
2019-01-22T01:57:28.543Z,27.80
2019-01-22T01:59:58.394Z,23.15
2019-01-22T02:02:28.099Z,26.33
2019-01-22T02:04:58.788Z,29.80
2019-01-22T02:07:33.207Z,22.93
2019-01-22T02:10:08.021Z,29.52
2019-01-22T02:12:40.779Z,27.37
2019-01-22T02:15:22.122Z,24.75
2019-01-22T02:18:13.076Z,28.55
2019-01-22T02:20:53.551Z,31.85
2019-01-22T02:23:49.158Z,29.02
2019-01-22T02:26:43.409Z,24.45
2019-01-22T02:29:30.910Z,25.80
2019-01-22T02:32:32.591Z,27.48
2019-01-22T02:35:27.561Z,32.70
2019-01-22T02:38:09.311Z,27.80
2019-01-22T02:40:42.095Z,28.32
2019-01-22T02:43:43.664Z,30.62
2019-01-22T02:46:20.179Z,27.75
2019-01-22T02:49:23.191Z,28.77
2019-01-22T02:52:10.868Z,32.03
2019-01-22T02:54:56.456Z,31.15
2019-01-22T02:57:36.713Z,33.78
2019-01-22T03:00:24.475Z,30.48
2019-01-22T03:03:01.637Z,29.60
2019-01-22T03:05:54.312Z,41.73
2019-01-22T03:08:45.826Z,33.90
2019-01-22T03:11:28.188Z,31.40
2019-01-22T03:14:22.193Z,26.30
2019-01-22T03:17:02.000Z,34.73
2019-01-22T03:19:36.818Z,26.93
2019-01-22T03:22:10.104Z,29.52
2019-01-22T03:25:08.647Z,32.20
2019-01-22T03:27:58.663Z,32.88
2019-01-22T03:30:44.216Z,30.72
2019-01-22T03:33:26.072Z,40.12
2019-01-22T03:36:09.200Z,44.90
2019-01-22T03:38:52.698Z,40.90
2019-01-22T03:41:44.035Z,37.15
2019-01-22T03:44:57.600Z,38.85
2019-01-22T03:47:47.659Z,39.83
2019-01-22T03:50:34.348Z,43.60
2019-01-22T03:53:22.371Z,31.27
2019-01-22T03:56:10.211Z,42.95
2019-01-22T03:58:48.893Z,35.90
2019-01-22T04:01:18.924Z,36.98
2019-01-22T04:03:49.579Z,32.70
2019-01-22T04:06:21.095Z,43.83
2019-01-22T04:08:53.519Z,48.55
2019-01-22T04:11:27.099Z,32.75
2019-01-22T04:13:56.960Z,35.40
2019-01-22T04:16:28.755Z,40.73
2019-01-22T04:19:02.739Z,53.40
2019-01-22T04:21:33.787Z,52.20
2019-01-22T04:24:12.899Z,34.88
2019-01-22T04:27:28.639Z,30.43
2019-01-22T04:30:15.353Z,36.33
2019-01-22T04:32:56.859Z,23.95
2019-01-22T04:35:56.612Z,33.15
2019-01-22T04:39:07.496Z,29.37
2019-01-22T04:41:59.660Z,29.07
2019-01-22T04:44:40.216Z,33.33
2019-01-22T04:47:43.101Z,42.43
2019-01-22T04:50:38.968Z,34.95
2019-01-22T04:53:37.923Z,33.13
2019-01-22T04:56:24.227Z,40.30
2019-01-22T04:59:21.095Z,38.73
2019-01-22T05:01:57.143Z,34.20
2019-01-22T05:04:29.911Z,36.90
2019-01-22T05:07:32.779Z,42.13
2019-01-22T05:10:21.931Z,41.92
2019-01-22T05:13:09.703Z,35.23
2019-01-22T05:16:13.893Z,41.20
2019-01-22T05:19:09.601Z,40.23
2019-01-22T05:21:45.231Z,31.62
2019-01-22T05:24:41.789Z,35.83
2019-01-22T05:27:38.532Z,33.88
2019-01-22T05:30:39.587Z,29.82
2019-01-22T05:33:27.515Z,29.63
2019-01-22T05:36:28.711Z,37.88
2019-01-22T05:39:12.411Z,36.90
2019-01-22T05:42:15.523Z,42.10
2019-01-22T05:45:21.759Z,38.80
2019-01-22T05:48:15.511Z,34.60
2019-01-22T05:50:58.263Z,32.83
2019-01-22T05:53:51.245Z,39.25
2019-01-22T05:56:26.892Z,34.38
2019-01-22T05:59:01.636Z,32.03
2019-01-22T06:01:53.026Z,34.30
2019-01-22T06:04:45.941Z,35.28
2019-01-22T06:07:29.134Z,29.82
2019-01-22T06:10:27.287Z,35.40
2019-01-22T06:13:09.124Z,32.30
2019-01-22T06:16:22.615Z,41.65
2019-01-22T06:19:15.595Z,29.87
2019-01-22T06:22:03.165Z,37.35
2019-01-22T06:24:40.437Z,34.33
2019-01-22T06:27:21.287Z,37.25
2019-01-22T06:30:27.251Z,33.78
2019-01-22T06:33:14.789Z,33.25
2019-01-22T06:35:52.151Z,31.40
2019-01-22T06:38:38.633Z,38.70
2019-01-22T06:41:22.764Z,32.20
2019-01-22T06:44:49.027Z,37.00
2019-01-22T06:47:36.983Z,39.70
2019-01-22T06:50:27.506Z,30.43
2019-01-22T06:53:12.621Z,31.87
2019-01-22T06:56:12.443Z,33.78
2019-01-22T06:58:51.067Z,34.53
2019-01-22T07:01:33.913Z,29.65
2019-01-22T07:04:15.575Z,22.15
2019-01-22T07:07:03.519Z,26.75
2019-01-22T07:10:00.299Z,33.15
2019-01-22T07:12:37.113Z,35.30
2019-01-22T07:15:24.671Z,30.20
2019-01-22T07:18:09.195Z,20.17
2019-01-22T07:20:47.823Z,25.92
2019-01-22T07:23:38.745Z,28.25
2019-01-22T07:26:34.421Z,31.85
2019-01-22T07:29:33.207Z,29.42
2019-01-22T07:32:08.475Z,23.57
2019-01-22T07:35:04.063Z,29.07
2019-01-22T07:37:44.015Z,26.57
2019-01-22T07:41:02.851Z,28.57
2019-01-22T07:43:59.471Z,21.97
2019-01-22T07:46:52.660Z,28.40
2019-01-22T07:49:41.643Z,24.72
2019-01-22T07:52:43.780Z,36.38
2019-01-22T07:55:51.101Z,33.40
2019-01-22T07:58:49.827Z,34.20
2019-01-22T08:01:29.996Z,27.02
2019-01-22T08:04:40.993Z,27.93
2019-01-22T08:07:32.420Z,25.85
2019-01-22T08:10:29.873Z,23.62
2019-01-22T08:13:38.227Z,28.70
2019-01-22T08:16:45.857Z,25.95
2019-01-22T08:19:32.676Z,26.75
2019-01-22T08:22:33.515Z,32.35
2019-01-22T08:25:23.045Z,24.75
2019-01-22T08:28:46.433Z,31.10
2019-01-22T08:31:27.585Z,37.58
2019-01-22T08:34:21.627Z,28.15
2019-01-22T08:37:12.121Z,32.05
2019-01-22T08:40:16.847Z,23.45
2019-01-22T08:43:11.369Z,27.95
2019-01-22T08:46:09.788Z,18.12
2019-01-22T08:49:10.563Z,18.57
2019-01-22T08:51:43.352Z,21.85
2019-01-22T08:54:32.183Z,22.62
2019-01-22T08:57:27.259Z,16.50
2019-01-22T09:00:17.816Z,20.45
2019-01-22T09:02:58.242Z,24.18
2019-01-22T09:05:47.047Z,21.23
2019-01-22T09:08:19.815Z,25.02
2019-01-22T09:11:09.867Z,21.85
2019-01-22T09:13:59.341Z,16.90
2019-01-22T09:17:02.379Z,25.65
2019-01-22T09:19:35.171Z,12.98
2019-01-22T09:22:31.364Z,18.30
2019-01-22T09:25:16.087Z,33.02
2019-01-22T09:27:50.079Z,18.23
2019-01-22T09:30:22.848Z,17.05
2019-01-22T09:33:04.219Z,22.73
2019-01-22T09:35:45.615Z,21.35
2019-01-22T09:38:15.320Z,22.40
2019-01-22T09:40:45.022Z,30.37
2019-01-22T09:43:14.707Z,26.90
2019-01-22T09:45:44.397Z,29.65
2019-01-22T09:48:14.156Z,25.10
2019-01-22T09:50:44.123Z,31.23
2019-01-22T09:53:13.805Z,24.55
2019-01-22T09:55:43.507Z,41.13
2019-01-22T09:58:13.312Z,36.40
2019-01-22T10:00:46.051Z,23.22
2019-01-22T10:03:16.638Z,35.10
2019-01-22T10:05:46.399Z,30.80
2019-01-22T10:10:42.040Z,24.18
2019-01-22T10:13:11.727Z,28.73
2019-01-22T10:15:41.551Z,24.07
2019-01-22T10:18:11.393Z,24.15
2019-01-22T10:20:41.174Z,34.70
2019-01-22T10:23:10.939Z,32.70
2019-01-22T10:25:41.603Z,29.07
2019-01-22T10:28:11.323Z,21.50
2019-01-22T10:30:41.039Z,23.42
2019-01-22T10:33:11.671Z,31.30
2019-01-22T10:35:41.360Z,24.75
2019-01-22T10:38:11.059Z,30.25
2019-01-22T10:40:40.760Z,37.45
2019-01-22T10:43:10.456Z,34.65
2019-01-22T10:45:40.143Z,26.23
2019-01-22T10:48:09.863Z,39.78
2019-01-22T10:50:39.555Z,31.90
2019-01-22T10:53:09.248Z,27.85
2019-01-22T10:55:38.983Z,29.52
2019-01-22T10:58:08.969Z,21.90
2019-01-22T11:00:39.819Z,24.47
2019-01-22T11:03:09.563Z,23.15
2019-01-22T11:05:40.411Z,32.80
2019-01-22T11:08:10.102Z,31.80
2019-01-22T11:10:39.795Z,31.33
2019-01-22T11:13:09.500Z,24.27
2019-01-22T11:15:40.191Z,31.68
2019-01-22T11:18:09.882Z,32.80
2019-01-22T11:20:39.603Z,24.37
2019-01-22T11:23:10.299Z,26.17
2019-01-22T11:25:43.613Z,24.15
2019-01-22T11:28:12.933Z,33.70
2019-01-22T11:30:42.640Z,25.30
2019-01-22T11:33:12.348Z,32.95
2019-01-22T11:35:42.036Z,28.50
2019-01-22T11:38:12.692Z,29.87
2019-01-22T11:40:43.831Z,38.70
2019-01-22T11:43:13.516Z,31.93
2019-01-22T11:45:43.220Z,27.10
2019-01-22T11:48:13.199Z,39.53
2019-01-22T11:50:43.033Z,34.38
2019-01-22T11:53:12.735Z,40.70
2019-01-22T11:55:42.427Z,26.73
2019-01-22T11:58:12.267Z,29.05
2019-01-22T12:00:43.594Z,40.63
2019-01-22T12:03:13.896Z,27.62
2019-01-22T12:05:43.871Z,30.02
2019-01-22T12:08:13.555Z,30.25
2019-01-22T12:10:43.376Z,34.70
2019-01-22T12:13:13.176Z,30.48
2019-01-22T12:15:43.976Z,38.88
2019-01-22T12:18:14.823Z,43.58
2019-01-22T12:20:46.861Z,30.15
2019-01-22T12:23:16.758Z,34.50
2019-01-22T12:25:47.403Z,42.05
2019-01-22T12:28:18.280Z,29.65
2019-01-22T12:30:48.131Z,30.52
2019-01-22T12:33:18.067Z,28.50
2019-01-22T12:35:47.752Z,35.17
2019-01-22T12:38:17.444Z,27.67
2019-01-22T12:40:47.140Z,27.87
2019-01-22T12:43:16.868Z,39.85
2019-01-22T12:45:49.704Z,32.75
2019-01-22T12:48:20.828Z,38.63
2019-01-22T12:50:50.764Z,36.03
2019-01-22T12:53:20.448Z,33.35
2019-01-22T12:55:50.164Z,32.73
2019-01-22T12:58:20.789Z,24.52
2019-01-22T13:00:50.491Z,32.38
2019-01-22T13:03:20.227Z,27.27
2019-01-22T13:05:53.523Z,28.02
2019-01-22T13:08:25.480Z,43.33
2019-01-22T13:10:55.317Z,34.60
2019-01-22T13:13:25.003Z,21.60
2019-01-22T13:15:55.611Z,24.45
2019-01-22T13:18:25.332Z,22.82
2019-01-22T13:20:55.123Z,33.78
2019-01-22T13:23:24.819Z,30.85
2019-01-22T13:25:54.579Z,29.42
2019-01-22T13:28:25.188Z,24.50
2019-01-22T13:30:54.944Z,26.85
2019-01-22T13:33:26.595Z,23.10
2019-01-22T13:35:56.288Z,33.38
2019-01-22T13:38:25.983Z,22.45
2019-01-22T13:40:55.715Z,29.45
2019-01-22T13:43:25.663Z,29.15
2019-01-22T13:45:57.378Z,27.75
2019-01-22T13:48:28.111Z,23.65
2019-01-22T13:50:57.812Z,17.65
2019-01-22T13:53:27.515Z,22.37
2019-01-22T13:55:57.207Z,25.62
2019-01-22T13:58:27.871Z,37.45
2019-01-22T14:00:57.564Z,20.27
2019-01-22T14:03:27.336Z,36.55
2019-01-22T14:05:57.996Z,35.85
2019-01-22T14:08:27.977Z,29.52
2019-01-22T14:10:57.829Z,26.27
2019-01-22T14:13:27.528Z,31.75
2019-01-22T14:15:57.251Z,27.62
2019-01-22T14:18:27.201Z,31.25
2019-01-22T14:20:56.875Z,31.60
2019-01-22T14:23:26.601Z,29.02
2019-01-22T14:25:56.299Z,25.60
2019-01-22T14:28:25.983Z,18.80
2019-01-22T14:30:55.714Z,31.62
2019-01-22T14:33:25.403Z,32.93
2019-01-22T14:35:55.328Z,20.05
2019-01-22T14:38:25.967Z,21.82
2019-01-22T14:40:55.683Z,33.65
2019-01-22T14:43:25.396Z,30.05
2019-01-22T14:45:56.003Z,31.82
2019-01-22T14:48:25.703Z,21.95
2019-01-22T14:50:55.411Z,24.45
2019-01-22T14:53:25.103Z,26.48
2019-01-22T14:55:56.779Z,30.30
2019-01-22T14:58:26.504Z,30.60
2019-01-22T15:00:56.200Z,30.82
2019-01-22T15:03:25.908Z,26.73
2019-01-22T15:05:55.851Z,30.37
2019-01-22T15:08:25.567Z,30.35
2019-01-22T15:10:55.579Z,24.40
2019-01-22T15:13:25.284Z,28.27
2019-01-22T15:15:55.895Z,25.52
2019-01-22T15:18:25.596Z,28.00
2019-01-22T15:20:55.307Z,25.45
2019-01-22T15:23:25.043Z,32.20
2019-01-22T15:25:54.731Z,26.12
2019-01-22T15:28:24.439Z,34.90
2019-01-22T15:30:54.128Z,26.12
2019-01-22T15:33:23.824Z,20.60
2019-01-22T15:35:54.479Z,33.53
2019-01-22T15:38:25.116Z,26.82
2019-01-22T15:40:54.821Z,25.02
2019-01-22T15:43:25.455Z,27.20
2019-01-22T15:45:55.151Z,28.23
2019-01-22T15:48:24.853Z,30.02
2019-01-22T15:50:56.772Z,35.10
2019-01-22T15:53:26.608Z,27.65
2019-01-22T15:55:56.565Z,36.25
2019-01-22T15:58:26.408Z,42.83
2019-01-22T16:00:56.123Z,33.00
2019-01-22T16:03:27.776Z,22.95
2019-01-22T16:05:57.463Z,26.02
2019-01-22T16:08:27.163Z,30.05
2019-01-22T16:10:56.872Z,28.15
2019-01-22T16:13:26.567Z,36.15
2019-01-22T16:15:56.313Z,22.10
2019-01-22T16:18:26.008Z,32.88
2019-01-22T16:20:55.723Z,32.15
2019-01-22T16:23:25.423Z,30.25
2019-01-22T16:25:55.179Z,37.60
2019-01-22T16:28:25.883Z,35.10
2019-01-22T16:30:55.587Z,28.25
2019-01-22T16:33:25.607Z,37.70
2019-01-22T16:35:55.543Z,35.15
2019-01-22T16:38:25.240Z,29.95
2019-01-22T16:40:55.207Z,36.08
2019-01-22T16:43:25.051Z,37.53
2019-01-22T16:45:55.868Z,41.23
2019-01-22T16:48:28.603Z,24.47
2019-01-22T16:50:59.271Z,32.58
2019-01-22T16:53:29.052Z,29.98
2019-01-22T16:55:59.036Z,34.48
2019-01-22T16:58:28.895Z,38.80
2019-01-22T17:00:58.591Z,28.73
2019-01-22T17:03:28.288Z,41.40
2019-01-22T17:05:58.008Z,46.33
2019-01-22T17:08:27.699Z,47.73
2019-01-22T17:10:57.400Z,28.98
2019-01-22T17:13:27.168Z,41.98
2019-01-22T17:15:56.889Z,27.62
2019-01-22T17:18:27.512Z,30.35
2019-01-22T17:20:57.477Z,34.00
2019-01-22T17:23:27.315Z,36.10
2019-01-22T17:25:57.012Z,28.75
2019-01-22T17:28:29.764Z,46.25
2019-01-22T17:31:01.134Z,42.67
2019-01-22T17:33:34.464Z,34.33
2019-01-22T17:36:04.235Z,31.57
2019-01-22T17:38:33.935Z,31.95
2019-01-22T17:41:03.635Z,40.55
2019-01-22T17:43:33.528Z,34.75
2019-01-22T17:46:03.221Z,36.85
2019-01-22T17:48:39.764Z,34.63
2019-01-22T17:51:09.480Z,44.48
2019-01-22T17:53:40.127Z,32.13
2019-01-22T17:56:10.772Z,41.45
2019-01-22T17:58:40.472Z,36.28
2019-01-22T18:01:10.235Z,33.88
2019-01-22T18:03:40.026Z,54.85
2019-01-22T18:06:10.631Z,35.13
2019-01-22T18:08:40.324Z,46.30
2019-01-22T18:11:10.044Z,55.23
2019-01-22T18:13:39.884Z,41.37
2019-01-22T18:16:10.018Z,52.85
2019-01-22T18:18:39.776Z,46.42
2019-01-22T18:21:09.518Z,50.20
2019-01-22T18:23:42.093Z,58.75
2019-01-22T18:26:12.760Z,49.10
2019-01-22T18:28:42.720Z,40.25
2019-01-22T18:31:13.324Z,28.67
2019-01-22T18:33:43.909Z,44.93
2019-01-22T18:36:15.532Z,45.10
2019-01-22T18:38:45.252Z,48.35
2019-01-22T18:41:15.875Z,34.18
2019-01-22T18:43:46.494Z,39.15
2019-01-22T18:46:17.144Z,31.90
2019-01-22T18:48:47.992Z,42.15
2019-01-22T18:51:19.642Z,39.20
2019-01-22T18:53:52.409Z,35.28
2019-01-22T18:56:22.111Z,45.48
2019-01-22T18:58:54.916Z,43.48
2019-01-22T19:01:24.616Z,48.98
2019-01-22T19:03:55.269Z,41.73
2019-01-22T19:06:27.145Z,44.83
2019-01-22T19:08:58.193Z,44.45
2019-01-22T19:11:28.408Z,51.60
2019-01-22T19:13:58.506Z,36.42
2019-01-22T19:16:28.649Z,43.48
2019-01-22T19:18:59.702Z,37.93
2019-01-22T19:21:31.696Z,49.25
2019-01-22T19:24:01.536Z,49.23
2019-01-22T19:26:33.128Z,55.63
2019-01-22T19:29:09.704Z,43.95
2019-01-22T19:31:39.789Z,43.70
2019-01-22T19:34:11.828Z,58.23
2019-01-22T19:36:41.697Z,31.37
2019-01-22T19:39:11.476Z,38.98
2019-01-22T19:41:54.622Z,39.70
2019-01-22T19:44:25.414Z,34.27
2019-01-22T19:46:55.116Z,40.65
2019-01-22T19:49:24.821Z,41.28
2019-01-22T19:51:54.536Z,46.65
2019-01-22T19:54:26.622Z,45.15
2019-01-22T19:57:04.399Z,48.28
2019-01-22T19:59:34.264Z,45.85
2019-01-22T20:02:04.040Z,44.80
2019-01-22T20:04:37.248Z,41.10
2019-01-22T20:07:07.786Z,38.42
2019-01-22T20:09:38.584Z,34.40
2019-01-22T20:12:14.240Z,38.78
2019-01-22T20:14:44.837Z,29.92
2019-01-22T20:17:16.757Z,41.05
2019-01-22T20:19:46.620Z,44.98
2019-01-22T20:22:17.498Z,37.30
2019-01-22T20:24:52.060Z,34.03
2019-01-22T20:27:21.808Z,34.08
2019-01-22T20:29:51.516Z,33.85
2019-01-22T20:32:22.480Z,28.45
2019-01-22T20:34:53.506Z,48.85
2019-01-22T20:37:24.324Z,40.48
2019-01-22T20:39:54.298Z,34.98
2019-01-22T20:42:31.145Z,42.98
2019-01-22T20:45:02.258Z,35.45
2019-01-22T20:47:34.112Z,41.10
2019-01-22T20:50:05.272Z,47.75
2019-01-22T20:52:35.244Z,40.55
2019-01-22T20:55:15.992Z,50.70
2019-01-22T20:57:46.760Z,38.28
2019-01-22T21:00:21.188Z,45.55
2019-01-22T21:02:51.154Z,37.50
2019-01-22T21:05:27.805Z,39.73
2019-01-22T21:07:57.984Z,43.50
2019-01-22T21:10:31.772Z,46.37
2019-01-22T21:13:01.800Z,42.67
2019-01-22T21:15:33.714Z,40.92
2019-01-22T21:18:04.649Z,46.77
2019-01-22T21:20:36.624Z,35.05
2019-01-22T21:23:07.430Z,47.13
2019-01-22T21:25:37.120Z,34.15
2019-01-22T21:28:08.775Z,48.78
2019-01-22T21:30:39.667Z,48.30
2019-01-22T21:33:09.516Z,34.03
2019-01-22T21:35:39.224Z,47.70
2019-01-22T21:38:10.449Z,46.28
2019-01-22T21:40:42.224Z,27.62
2019-01-22T21:43:12.225Z,53.02
2019-01-22T21:45:44.264Z,52.75
2019-01-22T21:48:21.044Z,51.28
2019-01-22T21:50:51.720Z,38.88
2019-01-22T21:53:22.028Z,43.00
2019-01-22T21:55:52.014Z,34.73
2019-01-22T21:58:22.784Z,35.25
2019-01-22T22:00:53.675Z,44.50
2019-01-22T22:03:23.774Z,44.18
2019-01-22T22:05:53.912Z,31.07
2019-01-22T22:08:24.768Z,38.55
2019-01-22T22:10:54.750Z,33.53
2019-01-22T22:13:24.580Z,38.95
2019-01-22T22:15:54.544Z,40.80
2019-01-22T22:18:25.638Z,34.53
2019-01-22T22:20:55.512Z,32.78
2019-01-22T22:23:25.344Z,37.95
2019-01-22T22:25:55.620Z,35.38
2019-01-22T22:28:25.317Z,42.88
2019-01-22T22:30:55.020Z,38.08
2019-01-22T22:33:25.004Z,40.92
2019-01-22T22:35:54.872Z,36.95
2019-01-22T22:38:28.504Z,40.08
2019-01-22T22:40:59.134Z,33.23
2019-01-22T22:43:31.388Z,33.00
2019-01-22T22:46:01.084Z,38.05
2019-01-22T22:48:38.801Z,38.48
2019-01-22T22:51:09.529Z,18.42
2019-01-22T22:53:40.164Z,26.52
2019-01-22T22:56:10.198Z,36.30
2019-01-22T22:58:41.278Z,28.57
2019-01-22T23:01:18.810Z,33.67
2019-01-22T23:03:50.552Z,30.65
2019-01-22T23:06:20.553Z,30.27
2019-01-22T23:08:50.528Z,35.98
2019-01-22T23:11:20.228Z,30.32
2019-01-22T23:13:50.865Z,36.38
2019-01-22T23:16:20.897Z,38.85
2019-01-22T23:18:52.705Z,27.52
2019-01-22T23:21:22.671Z,34.60
2019-01-22T23:23:55.513Z,33.60
2019-01-22T23:26:25.576Z,28.27
2019-01-22T23:28:55.729Z,38.23
2019-01-22T23:31:25.826Z,41.40
2019-01-22T23:33:55.974Z,41.77
2019-01-22T23:36:27.119Z,36.42
2019-01-22T23:38:57.240Z,33.10
2019-01-22T23:41:27.341Z,33.58
2019-01-22T23:43:57.501Z,32.90
2019-01-22T23:46:27.333Z,40.55
2019-01-22T23:48:57.297Z,43.48
2019-01-22T23:51:28.141Z,33.60
2019-01-22T23:53:59.070Z,30.62
2019-01-22T23:56:30.988Z,39.10
2019-01-22T23:59:01.661Z,32.78
